sensor_id;sensor_type;location;lat;lon;timestamp;P1;durP1;ratioP1;P2;durP2;ratioP2
72920;SDS011;61064;51.654;5.476;2023-03-12T00:01:24;8.93;;;2.53;;
72920;SDS011;61064;51.654;5.476;2023-03-12T00:03:57;8.57;;;2.97;;
72920;SDS011;61064;51.654;5.476;2023-03-12T00:06:24;7.93;;;3.00;;
72920;SDS011;61064;51.654;5.476;2023-03-12T00:08:50;8.00;;;2.80;;
72920;SDS011;61064;51.654;5.476;2023-03-12T00:11:16;9.00;;;2.50;;
72920;SDS011;61064;51.654;5.476;2023-03-12T00:13:43;7.20;;;2.20;;
72920;SDS011;61064;51.654;5.476;2023-03-12T00:16:09;9.70;;;2.53;;
72920;SDS011;61064;51.654;5.476;2023-03-12T00:18:36;8.40;;;2.27;;
72920;SDS011;61064;51.654;5.476;2023-03-12T00:21:02;9.32;;;2.53;;
72920;SDS011;61064;51.654;5.476;2023-03-12T00:23:27;8.10;;;2.27;;
72920;SDS011;61064;51.654;5.476;2023-03-12T00:25:53;8.77;;;2.67;;
72920;SDS011;61064;51.654;5.476;2023-03-12T00:28:18;9.73;;;2.50;;
72920;SDS011;61064;51.654;5.476;2023-03-12T00:30:44;9.80;;;2.73;;
72920;SDS011;61064;51.654;5.476;2023-03-12T00:33:10;7.33;;;2.47;;
72920;SDS011;61064;51.654;5.476;2023-03-12T00:35:36;9.73;;;2.38;;
72920;SDS011;61064;51.654;5.476;2023-03-12T00:38:03;7.85;;;2.60;;
72920;SDS011;61064;51.654;5.476;2023-03-12T00:40:28;7.75;;;2.75;;
72920;SDS011;61064;51.654;5.476;2023-03-12T00:42:54;6.87;;;2.50;;
72920;SDS011;61064;51.654;5.476;2023-03-12T00:45:19;9.23;;;2.30;;
72920;SDS011;61064;51.654;5.476;2023-03-12T00:47:44;7.30;;;2.70;;
72920;SDS011;61064;51.654;5.476;2023-03-12T00:50:09;9.63;;;2.43;;
72920;SDS011;61064;51.654;5.476;2023-03-12T00:52:35;8.37;;;2.67;;
72920;SDS011;61064;51.654;5.476;2023-03-12T00:55:00;8.93;;;2.53;;
72920;SDS011;61064;51.654;5.476;2023-03-12T00:57:26;8.18;;;2.28;;
72920;SDS011;61064;51.654;5.476;2023-03-12T00:59:51;7.63;;;2.93;;
72920;SDS011;61064;51.654;5.476;2023-03-12T01:02:16;10.73;;;2.60;;
72920;SDS011;61064;51.654;5.476;2023-03-12T01:04:42;7.40;;;2.30;;
72920;SDS011;61064;51.654;5.476;2023-03-12T01:07:07;9.53;;;2.20;;
72920;SDS011;61064;51.654;5.476;2023-03-12T01:09:32;7.80;;;2.70;;
72920;SDS011;61064;51.654;5.476;2023-03-12T01:11:58;6.53;;;2.23;;
72920;SDS011;61064;51.654;5.476;2023-03-12T01:14:23;8.43;;;2.17;;
72920;SDS011;61064;51.654;5.476;2023-03-12T01:16:48;8.93;;;2.42;;
72920;SDS011;61064;51.654;5.476;2023-03-12T01:19:14;7.67;;;2.50;;
72920;SDS011;61064;51.654;5.476;2023-03-12T01:21:39;8.80;;;2.33;;
72920;SDS011;61064;51.654;5.476;2023-03-12T01:24:05;8.65;;;2.60;;
72920;SDS011;61064;51.654;5.476;2023-03-12T01:26:31;8.40;;;2.60;;
72920;SDS011;61064;51.654;5.476;2023-03-12T01:28:56;10.57;;;2.70;;
72920;SDS011;61064;51.654;5.476;2023-03-12T01:31:21;8.75;;;2.70;;
72920;SDS011;61064;51.654;5.476;2023-03-12T01:33:49;9.33;;;2.90;;
72920;SDS011;61064;51.654;5.476;2023-03-12T01:38:43;8.13;;;2.70;;
72920;SDS011;61064;51.654;5.476;2023-03-12T01:41:08;8.40;;;2.60;;
72920;SDS011;61064;51.654;5.476;2023-03-12T01:43:35;8.87;;;2.50;;
72920;SDS011;61064;51.654;5.476;2023-03-12T01:48:31;10.57;;;2.78;;
72920;SDS011;61064;51.654;5.476;2023-03-12T01:51:02;8.25;;;2.40;;
72920;SDS011;61064;51.654;5.476;2023-03-12T01:53:27;7.60;;;2.47;;
72920;SDS011;61064;51.654;5.476;2023-03-12T01:55:54;10.63;;;3.08;;
72920;SDS011;61064;51.654;5.476;2023-03-12T01:58:19;9.30;;;2.53;;
72920;SDS011;61064;51.654;5.476;2023-03-12T02:00:46;8.00;;;2.38;;
72920;SDS011;61064;51.654;5.476;2023-03-12T02:03:12;9.70;;;2.50;;
72920;SDS011;61064;51.654;5.476;2023-03-12T02:05:52;7.25;;;2.78;;
72920;SDS011;61064;51.654;5.476;2023-03-12T02:08:21;10.77;;;2.47;;
72920;SDS011;61064;51.654;5.476;2023-03-12T02:10:48;9.80;;;2.50;;
72920;SDS011;61064;51.654;5.476;2023-03-12T02:13:13;9.47;;;2.60;;
72920;SDS011;61064;51.654;5.476;2023-03-12T02:15:39;6.53;;;2.10;;
72920;SDS011;61064;51.654;5.476;2023-03-12T02:18:05;12.40;;;3.10;;
72920;SDS011;61064;51.654;5.476;2023-03-12T02:20:38;8.90;;;2.67;;
72920;SDS011;61064;51.654;5.476;2023-03-12T02:23:20;9.63;;;2.40;;
72920;SDS011;61064;51.654;5.476;2023-03-12T02:25:54;10.13;;;2.42;;
72920;SDS011;61064;51.654;5.476;2023-03-12T02:28:21;11.57;;;3.17;;
72920;SDS011;61064;51.654;5.476;2023-03-12T02:30:50;7.85;;;2.55;;
72920;SDS011;61064;51.654;5.476;2023-03-12T02:33:20;7.72;;;2.17;;
72920;SDS011;61064;51.654;5.476;2023-03-12T02:35:46;10.00;;;2.10;;
72920;SDS011;61064;51.654;5.476;2023-03-12T02:41:20;6.45;;;2.08;;
72920;SDS011;61064;51.654;5.476;2023-03-12T02:43:48;7.30;;;1.98;;
72920;SDS011;61064;51.654;5.476;2023-03-12T02:46:21;8.05;;;2.33;;
72920;SDS011;61064;51.654;5.476;2023-03-12T02:48:46;7.63;;;2.00;;
72920;SDS011;61064;51.654;5.476;2023-03-12T02:51:11;12.00;;;2.30;;
72920;SDS011;61064;51.654;5.476;2023-03-12T02:53:37;8.13;;;2.50;;
72920;SDS011;61064;51.654;5.476;2023-03-12T02:56:02;7.80;;;2.50;;
72920;SDS011;61064;51.654;5.476;2023-03-12T02:58:28;8.10;;;2.70;;
72920;SDS011;61064;51.654;5.476;2023-03-12T03:00:53;8.45;;;2.30;;
72920;SDS011;61064;51.654;5.476;2023-03-12T03:03:19;8.63;;;2.53;;
72920;SDS011;61064;51.654;5.476;2023-03-12T03:05:44;7.50;;;2.17;;
72920;SDS011;61064;51.654;5.476;2023-03-12T03:08:10;10.97;;;2.40;;
72920;SDS011;61064;51.654;5.476;2023-03-12T03:10:35;7.43;;;2.33;;
72920;SDS011;61064;51.654;5.476;2023-03-12T03:13:00;11.43;;;2.70;;
72920;SDS011;61064;51.654;5.476;2023-03-12T03:15:26;6.85;;;2.17;;
72920;SDS011;61064;51.654;5.476;2023-03-12T03:17:51;8.57;;;2.40;;
72920;SDS011;61064;51.654;5.476;2023-03-12T03:20:16;7.30;;;2.40;;
72920;SDS011;61064;51.654;5.476;2023-03-12T03:22:42;8.90;;;2.80;;
72920;SDS011;61064;51.654;5.476;2023-03-12T03:25:08;8.23;;;2.43;;
72920;SDS011;61064;51.654;5.476;2023-03-12T03:27:34;12.23;;;2.80;;
72920;SDS011;61064;51.654;5.476;2023-03-12T03:30:00;8.57;;;2.60;;
72920;SDS011;61064;51.654;5.476;2023-03-12T03:32:26;9.47;;;3.00;;
72920;SDS011;61064;51.654;5.476;2023-03-12T03:34:52;8.77;;;2.83;;
72920;SDS011;61064;51.654;5.476;2023-03-12T03:37:17;8.53;;;2.53;;
72920;SDS011;61064;51.654;5.476;2023-03-12T03:39:42;9.30;;;2.97;;
72920;SDS011;61064;51.654;5.476;2023-03-12T03:42:08;8.67;;;2.57;;
72920;SDS011;61064;51.654;5.476;2023-03-12T03:44:33;7.50;;;2.63;;
72920;SDS011;61064;51.654;5.476;2023-03-12T03:46:58;9.02;;;2.95;;
72920;SDS011;61064;51.654;5.476;2023-03-12T03:49:24;11.40;;;3.00;;
72920;SDS011;61064;51.654;5.476;2023-03-12T03:51:49;9.53;;;3.30;;
72920;SDS011;61064;51.654;5.476;2023-03-12T03:54:18;8.55;;;3.08;;
72920;SDS011;61064;51.654;5.476;2023-03-12T03:56:43;9.50;;;3.23;;
72920;SDS011;61064;51.654;5.476;2023-03-12T03:59:09;11.52;;;3.45;;
72920;SDS011;61064;51.654;5.476;2023-03-12T04:01:35;13.23;;;3.73;;
72920;SDS011;61064;51.654;5.476;2023-03-12T04:04:01;9.65;;;3.00;;
72920;SDS011;61064;51.654;5.476;2023-03-12T04:06:27;11.65;;;3.25;;
72920;SDS011;61064;51.654;5.476;2023-03-12T04:08:53;7.67;;;2.80;;
72920;SDS011;61064;51.654;5.476;2023-03-12T04:11:20;9.45;;;2.90;;
72920;SDS011;61064;51.654;5.476;2023-03-12T04:13:46;9.43;;;3.22;;
72920;SDS011;61064;51.654;5.476;2023-03-12T04:16:13;10.30;;;3.17;;
72920;SDS011;61064;51.654;5.476;2023-03-12T04:18:39;9.93;;;3.08;;
72920;SDS011;61064;51.654;5.476;2023-03-12T04:21:06;11.30;;;3.17;;
72920;SDS011;61064;51.654;5.476;2023-03-12T04:23:33;11.02;;;3.00;;
72920;SDS011;61064;51.654;5.476;2023-03-12T04:26:00;8.48;;;2.72;;
72920;SDS011;61064;51.654;5.476;2023-03-12T04:28:25;8.30;;;2.80;;
72920;SDS011;61064;51.654;5.476;2023-03-12T04:30:54;10.00;;;2.93;;
72920;SDS011;61064;51.654;5.476;2023-03-12T04:33:20;8.50;;;2.70;;
72920;SDS011;61064;51.654;5.476;2023-03-12T04:35:50;8.07;;;2.63;;
72920;SDS011;61064;51.654;5.476;2023-03-12T04:38:16;10.70;;;3.17;;
72920;SDS011;61064;51.654;5.476;2023-03-12T04:40:42;11.93;;;2.93;;
72920;SDS011;61064;51.654;5.476;2023-03-12T04:43:07;8.70;;;2.83;;
72920;SDS011;61064;51.654;5.476;2023-03-12T04:45:32;9.40;;;2.43;;
72920;SDS011;61064;51.654;5.476;2023-03-12T04:47:57;8.00;;;2.73;;
72920;SDS011;61064;51.654;5.476;2023-03-12T04:50:23;9.83;;;2.93;;
72920;SDS011;61064;51.654;5.476;2023-03-12T04:52:48;12.23;;;2.70;;
72920;SDS011;61064;51.654;5.476;2023-03-12T04:55:13;8.03;;;2.60;;
72920;SDS011;61064;51.654;5.476;2023-03-12T04:57:39;8.87;;;2.57;;
72920;SDS011;61064;51.654;5.476;2023-03-12T05:00:04;8.47;;;2.80;;
72920;SDS011;61064;51.654;5.476;2023-03-12T05:02:35;8.93;;;2.50;;
72920;SDS011;61064;51.654;5.476;2023-03-12T05:05:01;7.95;;;2.60;;
72920;SDS011;61064;51.654;5.476;2023-03-12T05:07:26;11.07;;;2.83;;
72920;SDS011;61064;51.654;5.476;2023-03-12T05:09:51;10.27;;;2.77;;
72920;SDS011;61064;51.654;5.476;2023-03-12T05:12:17;7.03;;;2.33;;
72920;SDS011;61064;51.654;5.476;2023-03-12T05:14:42;9.27;;;2.60;;
72920;SDS011;61064;51.654;5.476;2023-03-12T05:17:07;8.38;;;2.35;;
72920;SDS011;61064;51.654;5.476;2023-03-12T05:19:33;10.30;;;2.63;;
72920;SDS011;61064;51.654;5.476;2023-03-12T05:21:58;7.70;;;2.43;;
72920;SDS011;61064;51.654;5.476;2023-03-12T05:24:23;6.23;;;2.10;;
72920;SDS011;61064;51.654;5.476;2023-03-12T05:26:48;9.77;;;2.37;;
72920;SDS011;61064;51.654;5.476;2023-03-12T05:29:14;7.43;;;2.23;;
72920;SDS011;61064;51.654;5.476;2023-03-12T05:31:39;9.57;;;2.60;;
72920;SDS011;61064;51.654;5.476;2023-03-12T05:34:05;9.90;;;2.50;;
72920;SDS011;61064;51.654;5.476;2023-03-12T05:36:30;8.30;;;2.67;;
72920;SDS011;61064;51.654;5.476;2023-03-12T05:38:56;7.03;;;2.37;;
72920;SDS011;61064;51.654;5.476;2023-03-12T05:41:22;14.23;;;3.60;;
72920;SDS011;61064;51.654;5.476;2023-03-12T05:43:51;9.93;;;2.40;;
72920;SDS011;61064;51.654;5.476;2023-03-12T05:46:17;10.40;;;2.67;;
72920;SDS011;61064;51.654;5.476;2023-03-12T05:48:42;10.63;;;2.57;;
72920;SDS011;61064;51.654;5.476;2023-03-12T05:51:08;9.37;;;2.33;;
72920;SDS011;61064;51.654;5.476;2023-03-12T05:53:33;7.97;;;2.50;;
72920;SDS011;61064;51.654;5.476;2023-03-12T05:56:02;8.65;;;2.30;;
72920;SDS011;61064;51.654;5.476;2023-03-12T05:58:29;8.67;;;3.03;;
72920;SDS011;61064;51.654;5.476;2023-03-12T06:00:55;8.88;;;2.60;;
72920;SDS011;61064;51.654;5.476;2023-03-12T06:03:20;11.90;;;2.50;;
72920;SDS011;61064;51.654;5.476;2023-03-12T06:05:46;10.33;;;2.90;;
72920;SDS011;61064;51.654;5.476;2023-03-12T06:08:12;7.97;;;2.30;;
72920;SDS011;61064;51.654;5.476;2023-03-12T06:10:38;7.43;;;2.42;;
72920;SDS011;61064;51.654;5.476;2023-03-12T06:13:03;10.10;;;2.70;;
72920;SDS011;61064;51.654;5.476;2023-03-12T06:15:29;7.40;;;2.70;;
72920;SDS011;61064;51.654;5.476;2023-03-12T06:17:55;11.97;;;2.80;;
72920;SDS011;61064;51.654;5.476;2023-03-12T06:20:20;10.13;;;2.20;;
72920;SDS011;61064;51.654;5.476;2023-03-12T06:22:46;10.80;;;2.63;;
72920;SDS011;61064;51.654;5.476;2023-03-12T06:25:11;9.10;;;3.23;;
72920;SDS011;61064;51.654;5.476;2023-03-12T06:27:37;10.63;;;3.10;;
72920;SDS011;61064;51.654;5.476;2023-03-12T06:30:03;9.43;;;3.10;;
72920;SDS011;61064;51.654;5.476;2023-03-12T06:32:29;9.93;;;3.10;;
72920;SDS011;61064;51.654;5.476;2023-03-12T06:34:55;10.40;;;3.00;;
72920;SDS011;61064;51.654;5.476;2023-03-12T06:37:20;11.73;;;3.33;;
72920;SDS011;61064;51.654;5.476;2023-03-12T06:39:45;11.23;;;3.00;;
72920;SDS011;61064;51.654;5.476;2023-03-12T06:42:11;9.13;;;2.80;;
72920;SDS011;61064;51.654;5.476;2023-03-12T06:44:38;12.80;;;3.55;;
72920;SDS011;61064;51.654;5.476;2023-03-12T06:47:04;12.20;;;3.07;;
72920;SDS011;61064;51.654;5.476;2023-03-12T06:49:29;11.43;;;3.40;;
72920;SDS011;61064;51.654;5.476;2023-03-12T06:51:57;12.10;;;3.58;;
72920;SDS011;61064;51.654;5.476;2023-03-12T06:54:22;10.43;;;3.63;;
72920;SDS011;61064;51.654;5.476;2023-03-12T06:56:47;9.27;;;3.67;;
72920;SDS011;61064;51.654;5.476;2023-03-12T06:59:13;14.73;;;3.83;;
72920;SDS011;61064;51.654;5.476;2023-03-12T07:01:38;10.43;;;3.38;;
72920;SDS011;61064;51.654;5.476;2023-03-12T07:04:03;11.63;;;4.00;;
72920;SDS011;61064;51.654;5.476;2023-03-12T07:06:29;9.87;;;3.60;;
72920;SDS011;61064;51.654;5.476;2023-03-12T07:08:54;10.40;;;3.57;;
72920;SDS011;61064;51.654;5.476;2023-03-12T07:11:19;11.93;;;3.83;;
72920;SDS011;61064;51.654;5.476;2023-03-12T07:13:45;12.50;;;4.03;;
72920;SDS011;61064;51.654;5.476;2023-03-12T07:16:10;10.30;;;4.40;;
72920;SDS011;61064;51.654;5.476;2023-03-12T07:18:36;12.33;;;4.27;;
72920;SDS011;61064;51.654;5.476;2023-03-12T07:21:02;9.13;;;3.78;;
72920;SDS011;61064;51.654;5.476;2023-03-12T07:23:27;14.70;;;4.53;;
72920;SDS011;61064;51.654;5.476;2023-03-12T07:25:53;12.57;;;5.07;;
72920;SDS011;61064;51.654;5.476;2023-03-12T07:28:19;12.07;;;4.37;;
72920;SDS011;61064;51.654;5.476;2023-03-12T07:30:45;13.67;;;4.57;;
72920;SDS011;61064;51.654;5.476;2023-03-12T07:33:17;11.43;;;4.45;;
72920;SDS011;61064;51.654;5.476;2023-03-12T07:35:45;12.77;;;4.90;;
72920;SDS011;61064;51.654;5.476;2023-03-12T07:38:11;11.43;;;4.70;;
72920;SDS011;61064;51.654;5.476;2023-03-12T07:40:37;12.43;;;4.90;;
72920;SDS011;61064;51.654;5.476;2023-03-12T07:43:03;14.93;;;4.80;;
72920;SDS011;61064;51.654;5.476;2023-03-12T07:45:35;13.80;;;4.72;;
72920;SDS011;61064;51.654;5.476;2023-03-12T07:48:01;14.53;;;4.60;;
72920;SDS011;61064;51.654;5.476;2023-03-12T07:50:27;13.40;;;4.63;;
72920;SDS011;61064;51.654;5.476;2023-03-12T07:52:52;11.50;;;4.53;;
72920;SDS011;61064;51.654;5.476;2023-03-12T07:55:17;14.07;;;5.00;;
72920;SDS011;61064;51.654;5.476;2023-03-12T07:57:43;17.13;;;5.33;;
72920;SDS011;61064;51.654;5.476;2023-03-12T08:00:08;10.40;;;4.37;;
72920;SDS011;61064;51.654;5.476;2023-03-12T08:02:34;15.27;;;5.20;;
72920;SDS011;61064;51.654;5.476;2023-03-12T08:05:00;13.90;;;5.23;;
72920;SDS011;61064;51.654;5.476;2023-03-12T08:07:25;11.63;;;5.40;;
72920;SDS011;61064;51.654;5.476;2023-03-12T08:09:56;15.60;;;5.07;;
72920;SDS011;61064;51.654;5.476;2023-03-12T08:12:22;13.43;;;5.35;;
72920;SDS011;61064;51.654;5.476;2023-03-12T08:14:47;11.80;;;5.40;;
72920;SDS011;61064;51.654;5.476;2023-03-12T08:17:14;13.07;;;5.38;;
72920;SDS011;61064;51.654;5.476;2023-03-12T08:19:39;11.60;;;5.17;;
72920;SDS011;61064;51.654;5.476;2023-03-12T08:22:06;14.05;;;5.57;;
72920;SDS011;61064;51.654;5.476;2023-03-12T08:24:32;13.20;;;5.33;;
72920;SDS011;61064;51.654;5.476;2023-03-12T08:26:57;13.85;;;5.68;;
72920;SDS011;61064;51.654;5.476;2023-03-12T08:29:22;11.33;;;5.37;;
72920;SDS011;61064;51.654;5.476;2023-03-12T08:31:48;13.57;;;5.63;;
72920;SDS011;61064;51.654;5.476;2023-03-12T08:34:13;14.87;;;5.63;;
72920;SDS011;61064;51.654;5.476;2023-03-12T08:36:38;13.67;;;5.40;;
72920;SDS011;61064;51.654;5.476;2023-03-12T08:39:04;11.90;;;5.50;;
72920;SDS011;61064;51.654;5.476;2023-03-12T08:41:29;12.30;;;6.00;;
72920;SDS011;61064;51.654;5.476;2023-03-12T08:43:55;14.00;;;6.07;;
72920;SDS011;61064;51.654;5.476;2023-03-12T08:46:20;13.37;;;5.60;;
72920;SDS011;61064;51.654;5.476;2023-03-12T08:48:46;11.50;;;5.75;;
72920;SDS011;61064;51.654;5.476;2023-03-12T08:51:11;11.73;;;5.63;;
72920;SDS011;61064;51.654;5.476;2023-03-12T08:53:37;12.77;;;6.20;;
72920;SDS011;61064;51.654;5.476;2023-03-12T08:56:03;12.32;;;5.75;;
72920;SDS011;61064;51.654;5.476;2023-03-12T08:58:29;14.65;;;6.53;;
72920;SDS011;61064;51.654;5.476;2023-03-12T09:00:54;12.77;;;5.97;;
72920;SDS011;61064;51.654;5.476;2023-03-12T09:03:21;13.18;;;6.20;;
72920;SDS011;61064;51.654;5.476;2023-03-12T09:05:47;15.65;;;6.65;;
72920;SDS011;61064;51.654;5.476;2023-03-12T09:08:13;16.50;;;6.97;;
72920;SDS011;61064;51.654;5.476;2023-03-12T09:10:39;15.82;;;6.78;;
72920;SDS011;61064;51.654;5.476;2023-03-12T09:13:05;18.00;;;7.60;;
72920;SDS011;61064;51.654;5.476;2023-03-12T09:15:31;16.70;;;7.80;;
72920;SDS011;61064;51.654;5.476;2023-03-12T09:17:57;20.23;;;8.90;;
72920;SDS011;61064;51.654;5.476;2023-03-12T09:20:23;23.43;;;9.80;;
72920;SDS011;61064;51.654;5.476;2023-03-12T09:22:49;24.97;;;10.50;;
72920;SDS011;61064;51.654;5.476;2023-03-12T09:25:15;23.15;;;10.35;;
72920;SDS011;61064;51.654;5.476;2023-03-12T09:27:42;25.02;;;10.50;;
72920;SDS011;61064;51.654;5.476;2023-03-12T09:30:14;27.98;;;11.32;;
72920;SDS011;61064;51.654;5.476;2023-03-12T09:32:41;24.47;;;10.40;;
72920;SDS011;61064;51.654;5.476;2023-03-12T09:35:10;25.40;;;11.18;;
72920;SDS011;61064;51.654;5.476;2023-03-12T09:37:36;24.25;;;10.77;;
72920;SDS011;61064;51.654;5.476;2023-03-12T09:40:02;25.37;;;11.40;;
72920;SDS011;61064;51.654;5.476;2023-03-12T09:45:30;28.30;;;12.65;;
72920;SDS011;61064;51.654;5.476;2023-03-12T09:48:01;30.95;;;13.13;;
72920;SDS011;61064;51.654;5.476;2023-03-12T09:50:32;28.23;;;12.83;;
72920;SDS011;61064;51.654;5.476;2023-03-12T09:55:48;31.02;;;13.10;;
72920;SDS011;61064;51.654;5.476;2023-03-12T09:58:25;28.30;;;13.25;;
72920;SDS011;61064;51.654;5.476;2023-03-12T10:00:54;28.55;;;12.68;;
72920;SDS011;61064;51.654;5.476;2023-03-12T10:06:16;27.35;;;12.80;;
72920;SDS011;61064;51.654;5.476;2023-03-12T10:09:00;31.75;;;13.57;;
72920;SDS011;61064;51.654;5.476;2023-03-12T10:11:58;26.42;;;12.50;;
72920;SDS011;61064;51.654;5.476;2023-03-12T10:14:33;28.95;;;13.43;;
72920;SDS011;61064;51.654;5.476;2023-03-12T10:17:28;29.53;;;12.73;;
72920;SDS011;61064;51.654;5.476;2023-03-12T10:20:07;27.38;;;12.18;;
72920;SDS011;61064;51.654;5.476;2023-03-12T10:28:17;24.58;;;11.73;;
72920;SDS011;61064;51.654;5.476;2023-03-12T10:30:50;24.23;;;11.97;;
72920;SDS011;61064;51.654;5.476;2023-03-12T10:33:20;31.20;;;13.02;;
72920;SDS011;61064;51.654;5.476;2023-03-12T10:35:50;27.15;;;12.65;;
72920;SDS011;61064;51.654;5.476;2023-03-12T10:38:17;28.35;;;13.00;;
72920;SDS011;61064;51.654;5.476;2023-03-12T10:40:50;26.38;;;12.77;;
72920;SDS011;61064;51.654;5.476;2023-03-12T10:43:15;29.50;;;12.23;;
72920;SDS011;61064;51.654;5.476;2023-03-12T10:45:46;26.17;;;12.47;;
72920;SDS011;61064;51.654;5.476;2023-03-12T10:48:33;29.45;;;12.55;;
72920;SDS011;61064;51.654;5.476;2023-03-12T10:50:59;24.47;;;11.77;;
72920;SDS011;61064;51.654;5.476;2023-03-12T10:53:36;29.92;;;11.40;;
72920;SDS011;61064;51.654;5.476;2023-03-12T10:56:07;29.70;;;11.63;;
72920;SDS011;61064;51.654;5.476;2023-03-12T10:58:41;21.42;;;10.85;;
72920;SDS011;61064;51.654;5.476;2023-03-12T11:01:28;27.83;;;11.65;;
72920;SDS011;61064;51.654;5.476;2023-03-12T11:04:08;23.40;;;10.43;;
72920;SDS011;61064;51.654;5.476;2023-03-12T11:06:40;23.38;;;10.15;;
72920;SDS011;61064;51.654;5.476;2023-03-12T11:11:32;29.27;;;10.60;;
72920;SDS011;61064;51.654;5.476;2023-03-12T11:14:32;22.23;;;9.95;;
72920;SDS011;61064;51.654;5.476;2023-03-12T11:16:52;23.83;;;9.70;;
72920;SDS011;61064;51.654;5.476;2023-03-12T11:19:31;21.70;;;8.97;;
72920;SDS011;61064;51.654;5.476;2023-03-12T11:22:02;24.48;;;9.25;;
72920;SDS011;61064;51.654;5.476;2023-03-12T11:24:29;26.13;;;9.32;;
72920;SDS011;61064;51.654;5.476;2023-03-12T11:26:58;23.75;;;8.85;;
72920;SDS011;61064;51.654;5.476;2023-03-12T11:29:31;24.93;;;9.10;;
72920;SDS011;61064;51.654;5.476;2023-03-12T11:32:16;25.85;;;9.13;;
72920;SDS011;61064;51.654;5.476;2023-03-12T11:34:44;27.20;;;9.32;;
72920;SDS011;61064;51.654;5.476;2023-03-12T11:40:07;27.85;;;8.30;;
72920;SDS011;61064;51.654;5.476;2023-03-12T11:45:59;27.60;;;8.05;;
72920;SDS011;61064;51.654;5.476;2023-03-12T11:51:32;26.27;;;7.60;;
72920;SDS011;61064;51.654;5.476;2023-03-12T11:54:24;26.00;;;7.10;;
72920;SDS011;61064;51.654;5.476;2023-03-12T11:57:27;23.77;;;6.90;;
72920;SDS011;61064;51.654;5.476;2023-03-12T12:00:12;21.13;;;6.55;;
72920;SDS011;61064;51.654;5.476;2023-03-12T12:02:46;27.23;;;7.53;;
72920;SDS011;61064;51.654;5.476;2023-03-12T12:16:22;27.15;;;7.32;;
72920;SDS011;61064;51.654;5.476;2023-03-12T12:19:32;23.80;;;6.28;;
72920;SDS011;61064;51.654;5.476;2023-03-12T12:22:20;26.15;;;7.10;;
72920;SDS011;61064;51.654;5.476;2023-03-12T12:27:55;25.38;;;5.13;;
72920;SDS011;61064;51.654;5.476;2023-03-12T12:36:49;23.85;;;3.90;;
72920;SDS011;61064;51.654;5.476;2023-03-12T12:39:31;23.27;;;4.70;;
72920;SDS011;61064;51.654;5.476;2023-03-12T12:42:03;27.17;;;4.32;;
72920;SDS011;61064;51.654;5.476;2023-03-12T12:44:34;19.40;;;3.78;;
72920;SDS011;61064;51.654;5.476;2023-03-12T12:47:08;23.00;;;4.03;;
72920;SDS011;61064;51.654;5.476;2023-03-12T12:49:48;18.67;;;3.25;;
72920;SDS011;61064;51.654;5.476;2023-03-12T12:52:19;20.43;;;3.00;;
72920;SDS011;61064;51.654;5.476;2023-03-12T12:55:01;22.70;;;3.67;;
72920;SDS011;61064;51.654;5.476;2023-03-12T12:57:38;20.42;;;3.63;;
72920;SDS011;61064;51.654;5.476;2023-03-12T13:00:20;20.70;;;3.25;;
72920;SDS011;61064;51.654;5.476;2023-03-12T13:02:58;25.15;;;3.42;;
72920;SDS011;61064;51.654;5.476;2023-03-12T13:05:25;20.53;;;3.10;;
72920;SDS011;61064;51.654;5.476;2023-03-12T13:07:53;18.88;;;3.35;;
72920;SDS011;61064;51.654;5.476;2023-03-12T13:12:56;23.55;;;3.75;;
72920;SDS011;61064;51.654;5.476;2023-03-12T13:20:19;18.87;;;2.77;;
72920;SDS011;61064;51.654;5.476;2023-03-12T13:22:52;18.67;;;3.05;;
72920;SDS011;61064;51.654;5.476;2023-03-12T13:30:56;21.15;;;3.20;;
72920;SDS011;61064;51.654;5.476;2023-03-12T13:33:42;17.53;;;2.97;;
72920;SDS011;61064;51.654;5.476;2023-03-12T13:38:58;21.75;;;2.78;;
72920;SDS011;61064;51.654;5.476;2023-03-12T13:49:36;16.40;;;1.92;;
72920;SDS011;61064;51.654;5.476;2023-03-12T13:52:16;19.70;;;2.30;;
72920;SDS011;61064;51.654;5.476;2023-03-12T13:54:45;21.65;;;2.45;;
72920;SDS011;61064;51.654;5.476;2023-03-12T13:59:48;20.67;;;2.77;;
72920;SDS011;61064;51.654;5.476;2023-03-12T14:02:19;20.15;;;2.80;;
72920;SDS011;61064;51.654;5.476;2023-03-12T14:04:49;20.98;;;2.65;;
72920;SDS011;61064;51.654;5.476;2023-03-12T14:09:53;19.23;;;2.53;;
72920;SDS011;61064;51.654;5.476;2023-03-12T14:15:26;18.40;;;2.53;;
72920;SDS011;61064;51.654;5.476;2023-03-12T14:18:00;19.80;;;2.17;;
72920;SDS011;61064;51.654;5.476;2023-03-12T14:20:33;18.93;;;2.33;;
72920;SDS011;61064;51.654;5.476;2023-03-12T14:23:03;22.58;;;2.30;;
72920;SDS011;61064;51.654;5.476;2023-03-12T14:25:33;23.15;;;2.55;;
72920;SDS011;61064;51.654;5.476;2023-03-12T14:28:00;18.58;;;2.83;;
72920;SDS011;61064;51.654;5.476;2023-03-12T14:30:38;22.75;;;3.25;;
72920;SDS011;61064;51.654;5.476;2023-03-12T14:33:04;23.50;;;2.30;;
72920;SDS011;61064;51.654;5.476;2023-03-12T14:35:36;23.70;;;2.53;;
72920;SDS011;61064;51.654;5.476;2023-03-12T14:38:13;21.52;;;2.65;;
72920;SDS011;61064;51.654;5.476;2023-03-12T14:40:52;22.13;;;2.97;;
72920;SDS011;61064;51.654;5.476;2023-03-12T14:43:29;22.60;;;3.13;;
72920;SDS011;61064;51.654;5.476;2023-03-12T14:45:58;18.40;;;2.80;;
72920;SDS011;61064;51.654;5.476;2023-03-12T14:48:33;19.63;;;2.90;;
72920;SDS011;61064;51.654;5.476;2023-03-12T14:51:00;22.17;;;2.90;;
72920;SDS011;61064;51.654;5.476;2023-03-12T14:53:29;18.92;;;2.80;;
72920;SDS011;61064;51.654;5.476;2023-03-12T14:58:42;20.07;;;2.67;;
72920;SDS011;61064;51.654;5.476;2023-03-12T15:01:11;20.85;;;2.70;;
72920;SDS011;61064;51.654;5.476;2023-03-12T15:03:43;19.98;;;2.85;;
72920;SDS011;61064;51.654;5.476;2023-03-12T15:06:19;20.48;;;2.60;;
72920;SDS011;61064;51.654;5.476;2023-03-12T15:08:58;19.67;;;3.25;;
72920;SDS011;61064;51.654;5.476;2023-03-12T15:11:28;21.63;;;3.10;;
72920;SDS011;61064;51.654;5.476;2023-03-12T15:13:54;17.10;;;2.33;;
72920;SDS011;61064;51.654;5.476;2023-03-12T15:16:26;20.63;;;2.55;;
72920;SDS011;61064;51.654;5.476;2023-03-12T15:18:52;16.90;;;2.70;;
72920;SDS011;61064;51.654;5.476;2023-03-12T15:21:18;21.45;;;2.63;;
72920;SDS011;61064;51.654;5.476;2023-03-12T15:23:44;24.50;;;3.23;;
72920;SDS011;61064;51.654;5.476;2023-03-12T15:26:16;21.75;;;2.53;;
72920;SDS011;61064;51.654;5.476;2023-03-12T15:28:56;23.42;;;2.70;;
72920;SDS011;61064;51.654;5.476;2023-03-12T15:31:23;23.60;;;3.00;;
72920;SDS011;61064;51.654;5.476;2023-03-12T15:33:59;23.57;;;3.30;;
72920;SDS011;61064;51.654;5.476;2023-03-12T15:36:27;20.42;;;2.30;;
72920;SDS011;61064;51.654;5.476;2023-03-12T15:38:58;18.90;;;2.60;;
72920;SDS011;61064;51.654;5.476;2023-03-12T15:41:47;17.52;;;2.13;;
72920;SDS011;61064;51.654;5.476;2023-03-12T15:44:21;21.33;;;2.50;;
72920;SDS011;61064;51.654;5.476;2023-03-12T15:46:49;19.85;;;2.60;;
72920;SDS011;61064;51.654;5.476;2023-03-12T15:49:22;24.05;;;3.05;;
72920;SDS011;61064;51.654;5.476;2023-03-12T15:51:58;17.10;;;2.33;;
72920;SDS011;61064;51.654;5.476;2023-03-12T15:54:28;19.52;;;2.60;;
72920;SDS011;61064;51.654;5.476;2023-03-12T15:57:10;20.70;;;2.63;;
72920;SDS011;61064;51.654;5.476;2023-03-12T16:00:11;22.08;;;2.88;;
72920;SDS011;61064;51.654;5.476;2023-03-12T16:05:14;23.07;;;3.10;;
72920;SDS011;61064;51.654;5.476;2023-03-12T16:07:40;25.38;;;2.67;;
72920;SDS011;61064;51.654;5.476;2023-03-12T16:10:06;23.15;;;3.20;;
72920;SDS011;61064;51.654;5.476;2023-03-12T16:12:35;22.47;;;2.60;;
72920;SDS011;61064;51.654;5.476;2023-03-12T16:15:02;20.42;;;3.03;;
72920;SDS011;61064;51.654;5.476;2023-03-12T16:17:28;21.40;;;3.00;;
72920;SDS011;61064;51.654;5.476;2023-03-12T16:19:53;22.30;;;2.80;;